Disclaimer

Please do not use the information listed here in-flight or in-navigation, as they are not provided to us by the airports but are provided by volunteers, so they might be outdated.

Search


Regions


Airport information page

Radio informations:
BERGERAC TWR - 119.8 MHz

Airport informations:
Latitude: 44° 49' 31.00" N
Longitude: 000° 31' 07.00" E
Elevation: 171 feet - 52 meters
Operating hours: Remarks
Operating agency: Civil government, landing fees and diplomatic clearance may be required
Timezone: UTC+1(+2DT) - Last Sunday in March to last Sunday in October
Fuel: Jet A1, without icing nhibitor.

100/130 MIL Spec, low lead, aviation gasoline (BLUE)

Runway information:
10/28 - 7234 x 148 feet< - >2205 x 45 meters

Recent METARs:
LFBE 160600Z AUTO 09002KT 0800 R27/1100U FG NSC 05/05 Q1021 TEMPO VV/// BECMG 9999 NSW
LFBE 160630Z AUTO VRB02KT 0800 R27/1000U FG BKN004 05/05 Q1021 BECMG CAVOK
LFBE 160700Z AUTO 08003KT 0550 0500 R27/0500D FG VV/// 05/05 Q1021 BECMG CAVOK

Airport on the map: